Time;durP1;ratioP1;P1;durP2;ratioP2;P2;SDS_P1;SDS_P2;PMS_P1;PMS_P2;Temp;Humidity;BMP_temperature;BMP_pressure;BME280_temperature;BME280_humidity;BME280_pressure;Samples;Min_cycle;Max_cycle;Signal;HPM_P1;HPM_P2
2023/01/14 00:02:07;;;;;;;;;;;;;;;6.66;87.34;101437.69;5039007;28;19942;-65
2023/01/14 00:04:32;;;;;;;;;;;;;;;6.61;87.75;101439.00;5049569;28;19923;-65
2023/01/14 00:06:57;;;;;;;;;;;;;;;6.59;87.78;101443.56;5032731;28;19955;-65
2023/01/14 00:09:26;;;;;;;;;;;;;;;6.48;87.42;101439.22;5047799;28;19939;-65
2023/01/14 00:11:52;;;;;;;;;;;;;;;6.47;87.98;101446.28;5035176;28;20192;-66
2023/01/14 00:14:24;;;;;;;;;;;;;;;6.40;87.95;101452.22;5045259;28;20367;-64
2023/01/14 00:16:50;;;;;;;;;;;;;;;6.41;87.95;101445.97;5044181;28;19987;-66
2023/01/14 00:19:15;;;;;;;;;;;;;;;6.49;88.12;101449.66;5033166;28;19923;-64
2023/01/14 00:21:41;;;;;;;;;;;;;;;6.51;88.40;101450.34;5033456;28;19916;-65
2023/01/14 00:24:07;;;;;;;;;;;;;;;6.53;88.14;101456.31;5054030;28;19959;-65
2023/01/14 00:26:32;;;;;;;;;;;;;;;6.55;88.25;101456.19;5036631;28;20102;-66
2023/01/14 00:28:58;;;;;;;;;;;;;;;6.58;88.05;101458.56;5032637;28;19912;-65
2023/01/14 00:31:25;;;;;;;;;;;;;;;6.57;88.13;101440.22;5033460;28;19939;-66
2023/01/14 00:33:50;;;;;;;;;;;;;;;6.63;87.59;101439.72;5032549;28;19913;-64
2023/01/14 00:36:16;;;;;;;;;;;;;;;6.59;87.56;101430.38;5034163;28;19956;-66
2023/01/14 00:38:42;;;;;;;;;;;;;;;6.56;87.14;101442.03;5053261;28;19979;-65
2023/01/14 00:41:11;;;;;;;;;;;;;;;6.51;87.36;101441.59;5031721;28;20067;-65
2023/01/14 00:43:37;;;;;;;;;;;;;;;6.46;87.42;101441.16;5032543;28;19912;-64
2023/01/14 00:46:05;;;;;;;;;;;;;;;6.45;86.92;101439.47;5050259;28;19923;-65
2023/01/14 00:48:30;;;;;;;;;;;;;;;6.37;87.31;101434.84;5053430;28;19912;-65
2023/01/14 00:50:56;;;;;;;;;;;;;;;6.39;87.20;101450.56;5051966;28;20114;-66
2023/01/14 00:53:21;;;;;;;;;;;;;;;6.33;86.97;101448.41;5052447;28;19927;-65
2023/01/14 00:55:46;;;;;;;;;;;;;;;6.25;86.89;101458.75;5053627;28;20255;-66
2023/01/14 00:58:11;;;;;;;;;;;;;;;6.18;87.20;101461.91;5053274;28;19971;-65
2023/01/14 01:00:36;;;;;;;;;;;;;;;6.12;87.22;101466.88;5052033;28;19916;-66
2023/01/14 01:03:02;;;;;;;;;;;;;;;6.03;87.24;101465.81;5045137;28;20296;-65
2023/01/14 01:05:27;;;;;;;;;;;;;;;5.96;87.46;101462.00;5052044;28;20409;-64
2023/01/14 01:07:52;;;;;;;;;;;;;;;5.89;87.62;101455.53;5053340;28;19959;-65
2023/01/14 01:10:17;;;;;;;;;;;;;;;5.84;87.93;101457.72;5053150;28;19923;-65
2023/01/14 01:12:43;;;;;;;;;;;;;;;5.79;88.12;101471.25;5034143;28;20009;-65
2023/01/14 01:15:08;;;;;;;;;;;;;;;5.75;88.52;101474.25;5052877;28;20186;-66
2023/01/14 01:17:33;;;;;;;;;;;;;;;5.73;88.50;101468.25;5052831;28;20144;-66
2023/01/14 01:19:58;;;;;;;;;;;;;;;5.67;88.76;101468.75;5047709;28;19927;-64
2023/01/14 01:22:24;;;;;;;;;;;;;;;5.62;89.25;101461.22;5034120;28;19912;-65
2023/01/14 01:24:50;;;;;;;;;;;;;;;5.58;89.53;101457.19;5039801;28;20043;-65
2023/01/14 01:27:15;;;;;;;;;;;;;;;5.54;89.63;101453.94;5052343;28;20477;-64
2023/01/14 01:29:40;;;;;;;;;;;;;;;5.52;89.88;101455.03;5054083;28;19916;-65
2023/01/14 01:32:06;;;;;;;;;;;;;;;5.49;90.32;101456.13;5072835;28;20088;-65
2023/01/14 01:34:31;;;;;;;;;;;;;;;5.44;90.63;101453.00;5072933;28;19916;-65
2023/01/14 01:36:56;;;;;;;;;;;;;;;5.42;91.11;101451.44;5072573;28;19972;-65
2023/01/14 01:39:21;;;;;;;;;;;;;;;5.38;91.16;101450.84;5072956;28;19938;-64
2023/01/14 01:41:46;;;;;;;;;;;;;;;5.37;91.58;101448.34;5073148;28;20350;-65
2023/01/14 01:44:12;;;;;;;;;;;;;;;5.35;92.03;101445.00;5072516;28;19912;-64
2023/01/14 01:46:37;;;;;;;;;;;;;;;5.33;92.43;101442.50;5057067;28;19912;-65
2023/01/14 01:49:05;;;;;;;;;;;;;;;5.33;92.55;101447.75;5051625;28;20375;-64
2023/01/14 01:51:33;;;;;;;;;;;;;;;5.36;93.04;101454.56;5051552;28;19912;-64
2023/01/14 01:53:59;;;;;;;;;;;;;;;5.36;93.05;101447.50;5036238;28;19919;-65
2023/01/14 01:56:27;;;;;;;;;;;;;;;5.36;93.52;101451.94;5050910;28;19912;-66
2023/01/14 01:58:53;;;;;;;;;;;;;;;5.37;93.54;101461.50;5045383;28;19927;-65
2023/01/14 02:01:19;;;;;;;;;;;;;;;5.37;93.59;101464.16;5030724;28;20723;-65
2023/01/14 02:03:46;;;;;;;;;;;;;;;5.35;94.01;101451.09;5033765;28;19994;-65
2023/01/14 02:06:12;;;;;;;;;;;;;;;5.34;93.86;101446.78;5038065;28;19916;-58
2023/01/14 02:08:39;;;;;;;;;;;;;;;5.33;94.00;101449.56;5051117;28;20080;-65
2023/01/14 02:11:10;;;;;;;;;;;;;;;5.33;94.33;101437.22;5048764;28;19992;-64
2023/01/14 02:13:54;;;;;;;;;;;;;;;5.27;94.41;101435.09;5040477;28;19912;-65
2023/01/14 02:16:37;;;;;;;;;;;;;;;5.25;94.55;101437.84;5031366;28;20474;-64
2023/01/14 02:19:08;;;;;;;;;;;;;;;5.24;94.83;101430.06;5038722;28;20074;-65
2023/01/14 02:21:36;;;;;;;;;;;;;;;5.24;94.77;101420.38;5040749;28;20596;-65
2023/01/14 02:24:16;;;;;;;;;;;;;;;5.22;94.83;101405.66;5035263;28;20489;-66
2023/01/14 02:26:41;;;;;;;;;;;;;;;5.19;95.28;101404.06;5042556;28;20096;-65
2023/01/14 02:29:16;;;;;;;;;;;;;;;5.20;95.23;101392.59;5031539;28;20408;-66
2023/01/14 02:31:53;;;;;;;;;;;;;;;5.19;95.45;101385.63;5031596;28;20443;-65
2023/01/14 02:34:24;;;;;;;;;;;;;;;5.17;95.45;101378.81;5049308;28;19912;-64
2023/01/14 02:36:49;;;;;;;;;;;;;;;5.12;95.96;101368.66;5050070;28;19938;-65
2023/01/14 02:39:22;;;;;;;;;;;;;;;5.12;96.15;101363.41;5046635;28;20418;-65
2023/01/14 02:44:38;;;;;;;;;;;;;;;5.07;96.13;101357.66;5049558;28;20425;-65
2023/01/14 02:47:07;;;;;;;;;;;;;;;5.05;96.56;101354.31;5033818;28;19939;-65
2023/01/14 02:49:35;;;;;;;;;;;;;;;5.03;96.67;101358.88;5048017;28;19916;-65
2023/01/14 02:52:04;;;;;;;;;;;;;;;5.04;97.20;101362.34;5048557;28;19923;-65
2023/01/14 02:54:29;;;;;;;;;;;;;;;5.04;97.27;101355.28;5044858;28;19923;-58
2023/01/14 02:56:58;;;;;;;;;;;;;;;5.03;97.72;101343.09;5030840;28;19951;-64
2023/01/14 02:59:24;;;;;;;;;;;;;;;5.02;97.71;101346.69;5031050;28;19921;-65
2023/01/14 03:02:08;;;;;;;;;;;;;;;5.02;97.87;101351.94;5030817;28;20473;-65
2023/01/14 03:04:48;;;;;;;;;;;;;;;5.02;97.73;101344.03;5029469;28;19978;-65
2023/01/14 03:07:26;;;;;;;;;;;;;;;5.01;98.18;101329.22;5045434;28;19912;-65
2023/01/14 03:10:02;;;;;;;;;;;;;;;5.03;98.09;101335.19;5036982;28;19927;-66
2023/01/14 03:12:36;;;;;;;;;;;;;;;5.06;98.33;101339.38;5050437;28;19912;-64
2023/01/14 03:15:02;;;;;;;;;;;;;;;5.07;98.24;101333.97;5037257;28;20105;-65
2023/01/14 03:17:33;;;;;;;;;;;;;;;5.09;98.61;101325.97;5037035;28;20418;-66
2023/01/14 03:20:09;;;;;;;;;;;;;;;5.09;98.37;101325.97;5037628;28;19927;-65
2023/01/14 03:22:35;;;;;;;;;;;;;;;5.09;98.47;101316.25;5050946;28;19916;-65
2023/01/14 03:25:02;;;;;;;;;;;;;;;5.12;98.76;101323.91;5050778;28;20022;-65
2023/01/14 03:27:30;;;;;;;;;;;;;;;5.13;98.79;101309.78;5046922;28;19911;-64
2023/01/14 03:29:57;;;;;;;;;;;;;;;5.14;98.79;101308.81;5050635;28;20689;-65
2023/01/14 03:32:22;;;;;;;;;;;;;;;5.10;98.78;101296.88;5050921;28;20373;-65
2023/01/14 03:34:51;;;;;;;;;;;;;;;5.15;98.70;101299.13;5050817;28;20089;-65
2023/01/14 03:37:18;;;;;;;;;;;;;;;5.18;98.73;101304.16;5048834;28;20158;-66
2023/01/14 03:39:45;;;;;;;;;;;;;;;5.21;99.36;101307.41;5049145;28;19916;-65
2023/01/14 03:42:18;;;;;;;;;;;;;;;5.21;99.10;101298.66;5035404;28;19913;-65
2023/01/14 03:44:45;;;;;;;;;;;;;;;5.21;99.29;101298.66;5044712;28;20108;-65
2023/01/14 03:47:11;;;;;;;;;;;;;;;5.21;99.55;101296.88;5036639;28;19912;-65
2023/01/14 03:49:37;;;;;;;;;;;;;;;5.23;99.48;101297.56;5044669;28;20017;-65
2023/01/14 03:52:14;;;;;;;;;;;;;;;5.25;99.56;101287.75;5052656;28;19912;-65
2023/01/14 03:54:48;;;;;;;;;;;;;;;5.26;99.39;101276.25;5053325;28;19951;-66
2023/01/14 03:57:17;;;;;;;;;;;;;;;5.27;99.40;101277.94;5054702;28;19939;-65
2023/01/14 03:59:53;;;;;;;;;;;;;;;5.31;99.78;101275.88;5053287;28;20740;-65
2023/01/14 04:02:20;;;;;;;;;;;;;;;5.34;99.58;101277.41;5046019;28;19916;-65
2023/01/14 04:04:46;;;;;;;;;;;;;;;5.36;99.54;101272.84;5034507;28;19912;-65
2023/01/14 04:07:12;;;;;;;;;;;;;;;5.36;99.89;101265.78;5040656;28;19920;-65
2023/01/14 04:09:37;;;;;;;;;;;;;;;5.38;99.74;101257.75;5038138;28;19974;-65
2023/01/14 04:12:02;;;;;;;;;;;;;;;5.41;99.93;101255.72;5046701;28;19912;-65
2023/01/14 04:17:13;;;;;;;;;;;;;;;5.47;99.57;101242.03;5022607;28;19916;-65
2023/01/14 04:19:38;;;;;;;;;;;;;;;5.50;99.70;101233.06;5032261;28;19913;-65
2023/01/14 04:22:03;;;;;;;;;;;;;;;5.49;99.57;101236.63;5040932;28;19966;-65
2023/01/14 04:24:29;;;;;;;;;;;;;;;5.50;99.83;101223.34;5041925;28;19939;-65
2023/01/14 04:26:54;;;;;;;;;;;;;;;5.52;99.64;101217.97;5050271;28;19912;-65
2023/01/14 04:29:19;;;;;;;;;;;;;;;5.53;99.79;101214.34;5039596;28;20499;-65
2023/01/14 04:31:44;;;;;;;;;;;;;;;5.52;99.51;101208.25;5032857;28;19974;-65
2023/01/14 04:34:10;;;;;;;;;;;;;;;5.54;99.70;101193.16;5032480;28;20031;-66
2023/01/14 04:36:35;;;;;;;;;;;;;;;5.54;99.38;101203.69;5053129;28;19939;-64
2023/01/14 04:39:00;;;;;;;;;;;;;;;5.57;99.56;101197.31;5044865;28;20518;-65
2023/01/14 04:44:09;;;;;;;;;;;;;;;5.58;99.46;101186.66;5032636;28;20719;-65
2023/01/14 04:46:34;;;;;;;;;;;;;;;5.57;99.49;101198.16;5032818;28;19956;-64
2023/01/14 04:48:59;;;;;;;;;;;;;;;5.58;99.21;101196.34;5033457;28;19913;-64
2023/01/14 04:51:25;;;;;;;;;;;;;;;5.56;99.17;101193.03;5033501;28;19913;-65
2023/01/14 04:53:50;;;;;;;;;;;;;;;5.54;99.29;101190.53;5044354;28;19916;-66
2023/01/14 04:56:15;;;;;;;;;;;;;;;5.53;99.06;101191.50;5046228;28;20448;-65
2023/01/14 04:58:40;;;;;;;;;;;;;;;5.51;98.94;101190.78;5032143;28;19912;-65
2023/01/14 05:01:06;;;;;;;;;;;;;;;5.44;99.11;101173.81;5038875;28;19931;-64
2023/01/14 05:03:31;;;;;;;;;;;;;;;5.49;99.18;101181.31;5052378;28;19959;-65
2023/01/14 05:05:56;;;;;;;;;;;;;;;5.49;99.20;101181.31;5053527;28;19916;-64
2023/01/14 05:08:21;;;;;;;;;;;;;;;5.48;99.49;101171.75;5051759;28;19916;-65
2023/01/14 05:10:49;;;;;;;;;;;;;;;5.47;99.35;101160.38;5052576;28;19912;-65
2023/01/14 05:13:14;;;;;;;;;;;;;;;5.47;99.48;101155.09;5048239;28;19976;-65
2023/01/14 05:15:40;;;;;;;;;;;;;;;5.47;99.46;101159.53;5047543;28;19916;-65
2023/01/14 05:18:06;;;;;;;;;;;;;;;5.48;99.22;101153.31;5050698;28;20671;-65
2023/01/14 05:20:31;;;;;;;;;;;;;;;5.47;99.33;101155.09;5037592;28;19967;-65
2023/01/14 05:23:01;;;;;;;;;;;;;;;5.47;99.54;101141.94;5037661;28;19912;-65
2023/01/14 05:25:27;;;;;;;;;;;;;;;5.46;99.46;101129.72;5040326;28;19912;-65
2023/01/14 05:27:52;;;;;;;;;;;;;;;5.47;99.28;101130.56;5047640;28;19972;-65
2023/01/14 05:30:18;;;;;;;;;;;;;;;5.47;99.29;101120.88;5052737;28;20379;-65
2023/01/14 05:32:43;;;;;;;;;;;;;;;5.48;98.95;101122.53;5052625;28;19959;-65
2023/01/14 05:35:08;;;;;;;;;;;;;;;5.49;98.91;101104.94;5032303;28;19923;-65
2023/01/14 05:37:33;;;;;;;;;;;;;;;5.48;98.80;101096.19;5031999;28;20252;-65
2023/01/14 05:39:59;;;;;;;;;;;;;;;5.49;98.81;101086.50;5031004;28;19982;-65
2023/01/14 05:47:53;;;;;;;;;;;;;;;5.49;98.53;101071.56;5036197;28;20733;-64
2023/01/14 05:50:19;;;;;;;;;;;;;;;5.50;98.54;101056.59;5048903;28;19916;-64
2023/01/14 05:52:44;;;;;;;;;;;;;;;5.51;98.54;101058.25;5037879;28;20505;-65
2023/01/14 05:55:09;;;;;;;;;;;;;;;5.53;98.34;101054.50;5037230;28;19983;-57
2023/01/14 05:57:35;;;;;;;;;;;;;;;5.52;98.52;101046.75;5031368;28;20414;-58
2023/01/14 06:00:00;;;;;;;;;;;;;;;5.57;98.22;101041.91;5040643;28;19920;-58
2023/01/14 06:07:55;;;;;;;;;;;;;;;5.61;97.81;101014.31;5023359;28;20481;-58
2023/01/14 06:10:24;;;;;;;;;;;;;;;5.64;97.62;101003.50;5040071;28;19912;-59
2023/01/14 06:12:59;;;;;;;;;;;;;;;5.70;97.54;101002.13;5031784;28;19916;-65
2023/01/14 06:15:26;;;;;;;;;;;;;;;5.74;97.15;100995.63;5032486;28;20844;-65
2023/01/14 06:18:08;;;;;;;;;;;;;;;5.76;97.10;100996.31;5051695;28;20220;-65
2023/01/14 06:20:34;;;;;;;;;;;;;;;5.78;97.07;100991.75;5038542;28;19927;-65
2023/01/14 06:22:59;;;;;;;;;;;;;;;5.80;96.79;100988.03;5040073;28;20097;-65
2023/01/14 06:25:24;;;;;;;;;;;;;;;5.81;96.65;100981.78;5051158;28;20073;-65
2023/01/14 06:27:49;;;;;;;;;;;;;;;5.84;96.85;100986.78;5042239;28;19913;-65
2023/01/14 06:30:15;;;;;;;;;;;;;;;5.84;96.99;100975.41;5030906;28;20520;-65
2023/01/14 06:32:40;;;;;;;;;;;;;;;5.84;97.00;100964.88;5030926;28;20410;-64
2023/01/14 06:35:05;;;;;;;;;;;;;;;5.83;96.96;100963.22;5032942;28;20109;-65
2023/01/14 06:37:30;;;;;;;;;;;;;;;5.81;97.24;100944.91;5046814;28;19965;-65
2023/01/14 06:39:56;;;;;;;;;;;;;;;5.84;97.24;100946.41;5035016;28;20406;-66
2023/01/14 06:42:21;;;;;;;;;;;;;;;5.82;97.54;100938.66;5034590;28;20619;-65
2023/01/14 06:44:46;;;;;;;;;;;;;;;5.81;97.87;100937.00;5033081;28;19959;-66
2023/01/14 06:47:11;;;;;;;;;;;;;;;5.82;97.97;100928.13;5043668;28;20085;-66
2023/01/14 06:49:37;;;;;;;;;;;;;;;5.81;98.05;100920.34;5050283;28;20251;-66
2023/01/14 06:52:02;;;;;;;;;;;;;;;5.80;98.34;100916.06;5051065;28;20330;-66
2023/01/14 06:54:27;;;;;;;;;;;;;;;5.82;98.26;100906.19;5047125;28;20027;-65
2023/01/14 06:56:52;;;;;;;;;;;;;;;5.81;98.35;100905.38;5037420;28;20520;-66
2023/01/14 06:59:17;;;;;;;;;;;;;;;5.83;98.66;100905.22;5042398;28;19912;-65
2023/01/14 07:01:43;;;;;;;;;;;;;;;5.82;98.83;100885.13;5047892;28;19923;-65
2023/01/14 07:04:08;;;;;;;;;;;;;;;5.82;99.23;100878.03;5030547;28;19912;-66
2023/01/14 07:06:33;;;;;;;;;;;;;;;5.81;99.60;100884.28;5030461;28;20028;-65
2023/01/14 07:08:58;;;;;;;;;;;;;;;5.83;99.88;100879.72;5039806;28;19958;-65
2023/01/14 07:11:23;;;;;;;;;;;;;;;5.83;99.98;100865.69;5040647;28;19911;-65
2023/01/14 07:13:49;;;;;;;;;;;;;;;5.83;100.00;100852.53;5044876;28;19924;-65
2023/01/14 07:16:14;;;;;;;;;;;;;;;5.83;100.00;100847.25;5038045;28;20026;-65
2023/01/14 07:18:39;;;;;;;;;;;;;;;5.84;100.00;100841.00;5034364;28;20418;-65
2023/01/14 07:21:04;;;;;;;;;;;;;;;5.84;100.00;100836.56;5042682;28;19916;-66
2023/01/14 07:23:30;;;;;;;;;;;;;;;5.85;100.00;100818.94;5030775;28;20451;-65
2023/01/14 07:25:55;;;;;;;;;;;;;;;5.85;100.00;100817.16;5033325;28;20371;-65
2023/01/14 07:28:23;;;;;;;;;;;;;;;5.85;100.00;100817.16;5041238;28;19981;-65
2023/01/14 07:30:48;;;;;;;;;;;;;;;5.87;100.00;100809.09;5048388;28;20719;-65
2023/01/14 07:33:14;;;;;;;;;;;;;;;5.87;100.00;100803.84;5038885;28;19942;-65
2023/01/14 07:35:39;;;;;;;;;;;;;;;5.87;100.00;100796.75;5049615;28;20077;-65
2023/01/14 07:38:04;;;;;;;;;;;;;;;5.86;100.00;100789.81;5052577;28;19912;-65
2023/01/14 07:40:29;;;;;;;;;;;;;;;5.85;100.00;100782.88;5037049;28;20172;-65
2023/01/14 07:42:58;;;;;;;;;;;;;;;5.84;100.00;100786.50;5047292;28;19912;-65
2023/01/14 07:45:24;;;;;;;;;;;;;;;5.80;100.00;100769.31;5070093;28;20652;-65
2023/01/14 07:47:49;;;;;;;;;;;;;;;5.85;100.00;100767.09;5057362;28;19912;-65
2023/01/14 07:50:15;;;;;;;;;;;;;;;5.85;100.00;100759.19;5047251;28;20414;-64
2023/01/14 07:52:40;;;;;;;;;;;;;;;5.85;100.00;100747.81;5036133;28;20092;-64
2023/01/14 07:55:05;;;;;;;;;;;;;;;5.86;100.00;100734.47;5036830;28;20019;-65
2023/01/14 07:57:30;;;;;;;;;;;;;;;5.87;100.00;100733.50;5035571;28;19986;-65
2023/01/14 07:59:56;;;;;;;;;;;;;;;5.87;100.00;100720.34;5060338;28;20523;-66
2023/01/14 08:02:21;;;;;;;;;;;;;;;5.90;100.00;100706.91;5039337;28;19997;-65
2023/01/14 08:04:46;;;;;;;;;;;;;;;5.93;100.00;100699.66;5035653;28;20398;-65
2023/01/14 08:07:11;;;;;;;;;;;;;;;5.95;100.00;100689.81;5049723;28;19927;-65
2023/01/14 08:09:36;;;;;;;;;;;;;;;5.97;100.00;100680.78;5048865;28;19912;-65
2023/01/14 08:12:02;;;;;;;;;;;;;;;6.03;100.00;100674.09;5038550;28;20368;-65
2023/01/14 08:14:29;;;;;;;;;;;;;;;6.03;100.00;100660.91;5035211;28;21550;-65
2023/01/14 08:16:54;;;;;;;;;;;;;;;6.06;100.00;100658.00;5038492;28;19921;-65
2023/01/14 08:19:19;;;;;;;;;;;;;;;6.08;100.00;100653.44;5036221;28;19959;-64
2023/01/14 08:21:45;;;;;;;;;;;;;;;6.12;100.00;100646.88;5056652;28;19915;-65
2023/01/14 08:24:10;;;;;;;;;;;;;;;6.16;100.00;100637.69;5059261;28;19912;-64
2023/01/14 08:26:35;;;;;;;;;;;;;;;6.19;100.00;100640.03;5054979;28;20405;-64
2023/01/14 08:29:00;;;;;;;;;;;;;;;6.20;100.00;100623.25;5044586;28;20557;-64
2023/01/14 08:31:26;;;;;;;;;;;;;;;6.22;100.00;100605.47;5076071;28;20023;-65
2023/01/14 08:33:51;;;;;;;;;;;;;;;6.24;100.00;100602.69;5057386;28;20525;-65
2023/01/14 08:36:17;;;;;;;;;;;;;;;6.26;100.00;100608.63;5047140;28;20081;-64
2023/01/14 08:38:44;;;;;;;;;;;;;;;6.27;100.00;100595.28;5045660;28;20034;-65
2023/01/14 08:41:10;;;;;;;;;;;;;;;6.32;100.00;100579.84;5053670;28;20617;-64
2023/01/14 08:43:36;;;;;;;;;;;;;;;6.35;100.00;100576.09;5048514;28;19912;-64
2023/01/14 08:46:03;;;;;;;;;;;;;;;6.38;100.00;100557.34;5036877;28;20051;-64
2023/01/14 08:48:28;;;;;;;;;;;;;;;6.40;100.00;100555.38;5038588;28;20451;-65
2023/01/14 08:50:53;;;;;;;;;;;;;;;6.42;100.00;100538.44;5033427;28;19962;-65
2023/01/14 08:53:18;;;;;;;;;;;;;;;6.44;100.00;100536.47;5033049;28;19923;-64
2023/01/14 08:55:44;;;;;;;;;;;;;;;6.44;100.00;100531.19;5048435;28;19920;-65
2023/01/14 08:58:09;;;;;;;;;;;;;;;6.46;100.00;100515.22;5051851;28;19912;-65
2023/01/14 09:00:34;;;;;;;;;;;;;;;6.49;100.00;100522.81;5041991;28;19920;-65
2023/01/14 09:03:00;;;;;;;;;;;;;;;6.51;100.00;100505.84;5037753;28;19916;-64
2023/01/14 09:05:25;;;;;;;;;;;;;;;6.51;100.00;100502.41;5047230;28;19913;-64
2023/01/14 09:18:57;;;;;;;;;;;;;;;6.57;100.00;100456.94;5044021;28;19923;-64
2023/01/14 09:21:24;;;;;;;;;;;;;;;6.57;100.00;100461.38;5051896;28;19971;-64
2023/01/14 09:23:49;;;;;;;;;;;;;;;6.56;100.00;100460.53;5038043;28;20097;-64
2023/01/14 09:26:14;;;;;;;;;;;;;;;6.57;100.00;100441.09;5052093;28;20405;-64
2023/01/14 09:28:39;;;;;;;;;;;;;;;6.59;100.00;100449.69;5052241;28;20520;-65
2023/01/14 09:31:04;;;;;;;;;;;;;;;6.58;100.00;100442.75;5050949;28;19912;-64
2023/01/14 09:33:30;;;;;;;;;;;;;;;6.61;100.00;100429.25;5037330;28;20074;-64
2023/01/14 09:35:55;;;;;;;;;;;;;;;6.63;100.00;100414.09;5038625;28;19939;-64
2023/01/14 09:38:20;;;;;;;;;;;;;;;6.65;100.00;100432.41;5039754;28;20172;-64
2023/01/14 09:40:45;;;;;;;;;;;;;;;6.66;100.00;100415.63;5033429;28;20403;-64
2023/01/14 09:43:16;;;;;;;;;;;;;;;6.66;100.00;100402.44;5072351;28;19912;-64
2023/01/14 09:45:42;;;;;;;;;;;;;;;6.70;100.00;100393.22;5070877;28;20809;-64
2023/01/14 09:48:15;;;;;;;;;;;;;;;6.73;100.00;100404.28;5045416;28;20003;-64
2023/01/14 09:50:50;;;;;;;;;;;;;;;6.77;100.00;100389.78;5045474;28;19923;-64
2023/01/14 09:53:28;;;;;;;;;;;;;;;6.82;100.00;100386.66;5031548;28;19913;-64
2023/01/14 09:56:00;;;;;;;;;;;;;;;6.86;100.00;100382.72;5040432;28;20226;-64
2023/01/14 09:58:34;;;;;;;;;;;;;;;6.88;100.00;100370.19;5031249;28;19923;-64
2023/01/14 10:01:02;;;;;;;;;;;;;;;6.90;100.00;100368.22;5032149;28;19916;-64
2023/01/14 10:03:36;;;;;;;;;;;;;;;6.93;100.00;100370.53;5048390;28;20124;-64
2023/01/14 10:06:03;;;;;;;;;;;;;;;6.98;100.00;100359.53;5055715;28;20500;-64
2023/01/14 10:08:33;;;;;;;;;;;;;;;6.99;100.00;100351.44;5031787;28;20041;-65
2023/01/14 10:10:59;;;;;;;;;;;;;;;7.04;100.00;100333.31;5044202;28;20740;-64
2023/01/14 10:13:36;;;;;;;;;;;;;;;7.06;100.00;100306.75;5031470;28;20393;-65
2023/01/14 10:16:01;;;;;;;;;;;;;;;7.10;100.00;100305.44;5049368;28;19912;-65
2023/01/14 10:18:45;;;;;;;;;;;;;;;7.15;100.00;100303.97;5039260;28;19923;-65
2023/01/14 10:21:22;;;;;;;;;;;;;;;7.20;100.00;100300.00;5057382;28;19919;-65
2023/01/14 10:23:47;;;;;;;;;;;;;;;7.22;100.00;100288.28;5046581;28;19919;-65
2023/01/14 10:26:13;;;;;;;;;;;;;;;7.26;100.00;100294.09;5031424;28;19944;-65
2023/01/14 10:28:40;;;;;;;;;;;;;;;7.29;100.00;100270.00;5033664;28;20114;-65
2023/01/14 10:31:06;;;;;;;;;;;;;;;7.34;100.00;100267.69;5047205;28;19920;-65
2023/01/14 10:33:31;;;;;;;;;;;;;;;7.37;100.00;100252.34;5032592;28;20415;-65
2023/01/14 10:36:01;;;;;;;;;;;;;;;7.41;100.00;100263.41;5037500;28;20433;-65
2023/01/14 10:38:27;;;;;;;;;;;;;;;7.45;100.00;100240.94;5039889;28;19912;-63
2023/01/14 10:40:55;;;;;;;;;;;;;;;7.49;100.00;100226.41;5041711;28;19920;-65
2023/01/14 10:43:28;;;;;;;;;;;;;;;7.50;100.00;100221.94;5050677;28;19945;-65
2023/01/14 10:45:53;;;;;;;;;;;;;;;7.48;100.00;100216.81;5052773;28;20524;-65
2023/01/14 10:48:20;;;;;;;;;;;;;;;7.48;100.00;100203.63;5031027;28;19912;-65
2023/01/14 10:50:45;;;;;;;;;;;;;;;7.49;100.00;100184.13;5044327;28;20386;-65
2023/01/14 10:53:16;;;;;;;;;;;;;;;7.52;100.00;100181.19;5030809;28;19924;-65
2023/01/14 10:55:50;;;;;;;;;;;;;;;7.52;100.00;100178.53;5038184;28;19938;-65
2023/01/14 10:58:20;;;;;;;;;;;;;;;7.53;100.00;100189.94;5042932;28;20343;-65
2023/01/14 11:00:50;;;;;;;;;;;;;;;7.54;100.00;100176.56;5041925;28;20732;-65
2023/01/14 11:03:27;;;;;;;;;;;;;;;7.53;100.00;100174.91;5041422;28;19923;-65
2023/01/14 11:06:22;;;;;;;;;;;;;;;7.58;100.00;100145.34;5037711;28;19926;-66
2023/01/14 11:08:47;;;;;;;;;;;;;;;7.60;100.00;100140.72;5045905;28;19923;-66
2023/01/14 11:11:15;;;;;;;;;;;;;;;7.62;100.00;100139.53;5048129;28;19916;-65
2023/01/14 11:13:48;;;;;;;;;;;;;;;7.65;100.00;100146.31;5050988;28;19978;-65
2023/01/14 11:16:25;;;;;;;;;;;;;;;7.69;100.00;100113.25;5063189;28;20038;-66
2023/01/14 11:18:58;;;;;;;;;;;;;;;7.71;100.00;100117.38;5031293;28;20202;-65
2023/01/14 11:21:25;;;;;;;;;;;;;;;7.74;100.00;100101.19;5037126;28;19920;-65
2023/01/14 11:23:56;;;;;;;;;;;;;;;7.79;100.00;100121.81;5048204;28;19951;-66
2023/01/14 11:26:24;;;;;;;;;;;;;;;7.77;100.00;100098.19;5031597;28;19954;-65
2023/01/14 11:28:50;;;;;;;;;;;;;;;7.85;100.00;100084.16;5032614;28;20081;-66
2023/01/14 11:31:26;;;;;;;;;;;;;;;7.90;100.00;100095.03;5039476;28;19912;-65
2023/01/14 11:33:52;;;;;;;;;;;;;;;7.94;100.00;100079.63;5041788;28;20173;-65
2023/01/14 11:36:21;;;;;;;;;;;;;;;7.94;100.00;100075.19;5048248;28;20402;-66
2023/01/14 11:38:46;;;;;;;;;;;;;;;7.96;100.00;100054.69;5041281;28;20223;-66
2023/01/14 11:41:32;;;;;;;;;;;;;;;7.97;100.00;100088.03;5043272;28;20394;-66
2023/01/14 11:44:04;;;;;;;;;;;;;;;7.96;100.00;100067.91;5029772;28;19923;-65
2023/01/14 11:46:33;;;;;;;;;;;;;;;7.97;100.00;100072.19;5029078;28;20043;-66
2023/01/14 11:49:01;;;;;;;;;;;;;;;8.01;100.00;100046.22;5032237;28;19912;-66
2023/01/14 11:51:27;;;;;;;;;;;;;;;8.01;100.00;100039.09;5032168;28;20031;-66
2023/01/14 11:53:53;;;;;;;;;;;;;;;8.01;100.00;100031.19;5030027;28;19916;-65
2023/01/14 11:56:29;;;;;;;;;;;;;;;8.04;100.00;100024.72;5038092;28;20402;-66
2023/01/14 11:58:55;;;;;;;;;;;;;;;8.06;100.00;100038.59;5033690;28;20098;-66
2023/01/14 12:01:31;;;;;;;;;;;;;;;8.02;100.00;100008.19;5028814;28;20165;-65
2023/01/14 12:04:02;;;;;;;;;;;;;;;8.06;100.00;100020.06;5036738;28;19931;-65
2023/01/14 12:06:29;;;;;;;;;;;;;;;8.06;100.00;100006.84;5028974;28;20090;-66
2023/01/14 12:09:00;;;;;;;;;;;;;;;8.07;100.00;99990.81;5029222;28;19912;-66
2023/01/14 12:11:30;;;;;;;;;;;;;;;8.07;100.00;99993.47;5046361;28;20764;-66
2023/01/14 12:16:56;;;;;;;;;;;;;;;8.07;100.00;99967.00;5034363;28;19923;-65
2023/01/14 12:19:25;;;;;;;;;;;;;;;8.07;100.00;99956.44;5050437;28;20104;-66
2023/01/14 12:21:58;;;;;;;;;;;;;;;8.07;100.00;99955.63;5051460;28;20100;-66
2023/01/14 12:24:27;;;;;;;;;;;;;;;8.10;100.00;99942.06;5049296;28;20850;-66
2023/01/14 12:26:54;;;;;;;;;;;;;;;8.11;100.00;99937.59;5037470;28;20113;-65
2023/01/14 12:29:23;;;;;;;;;;;;;;;8.14;100.00;99918.72;5065492;28;19923;-65
2023/01/14 12:31:52;;;;;;;;;;;;;;;8.16;100.00;99912.25;5045945;28;20103;-66
2023/01/14 12:34:36;;;;;;;;;;;;;;;8.18;100.00;99901.50;5048646;28;19916;-66
2023/01/14 12:37:13;;;;;;;;;;;;;;;8.17;100.00;99892.75;5033447;28;20184;-65
2023/01/14 12:48:06;;;;;;;;;;;;;;;8.23;100.00;99878.81;5047027;28;20442;-66
2023/01/14 12:50:32;;;;;;;;;;;;;;;8.30;100.00;99870.97;5033524;28;20019;-66
2023/01/14 12:52:58;;;;;;;;;;;;;;;8.31;100.00;99859.38;5038801;28;19923;-66
2023/01/14 12:55:40;;;;;;;;;;;;;;;8.33;100.00;99850.31;5053485;28;19920;-66
2023/01/14 12:58:06;;;;;;;;;;;;;;;8.37;100.00;99850.75;5033589;28;20144;-66
2023/01/14 13:00:33;;;;;;;;;;;;;;;8.40;100.00;99854.91;5041771;28;20050;-65
2023/01/14 13:03:04;;;;;;;;;;;;;;;8.41;100.00;99841.50;5052029;28;20702;-66
2023/01/14 13:05:29;;;;;;;;;;;;;;;8.43;100.00;99839.47;5051321;28;20176;-66
2023/01/14 13:07:57;;;;;;;;;;;;;;;8.44;100.00;99832.38;5052097;28;19912;-66
2023/01/14 13:10:43;;;;;;;;;;;;;;;8.44;100.00;99825.25;5038517;28;19912;-66
2023/01/14 13:13:22;;;;;;;;;;;;;;;8.49;100.00;99820.22;5030863;28;19954;-65
2023/01/14 13:15:47;;;;;;;;;;;;;;;8.51;100.00;99826.16;5033042;28;20722;-66
2023/01/14 13:18:31;;;;;;;;;;;;;;;8.52;100.00;99800.50;5037251;28;19916;-65
2023/01/14 13:20:56;;;;;;;;;;;;;;;8.54;100.00;99798.50;5050564;28;20031;-66
2023/01/14 13:23:41;;;;;;;;;;;;;;;8.54;100.00;99794.03;5045298;28;19939;-66
2023/01/14 13:26:20;;;;;;;;;;;;;;;8.57;100.00;99803.44;5020679;28;19913;-65
2023/01/14 13:29:05;;;;;;;;;;;;;;;8.58;100.00;99787.38;5032658;28;20066;-65